»·PEaware :: N63DC KSLC-KASE

N63DC :: KSLC-KASE

FLIGHT INFORMATION

Flight Status: Arrived
Operator: Privately registered:
United States
More flights under this callsign
Pilot: Adam M. (17337)
Aircraft: CESSNA 750 CITATION 10
(C750)
More flights by this aircraft type
Origin: KSLC Salt Lake City Intl
United States
Destination: KASE Aspen-Pitkin Co/Sardy
United States
More flights between these airports :: More routes between these airports
Route: +NSIGN5 MTU TRUEL DBL
File this flight plan on PilotEdge
Remarks: PBN / A1B2B4B5 DOF / 171124 REG / N750SB EET / KZDV0019 RMK / TCAS SIMBRIEF
Altitude:
(Current/Filed)
39,000ft
Speed:
(Current/Filed)
493kts
Departed: 24-Nov-17 03:47 PM
Arrived: 24-Nov-17 04:41 PM
Distance/Time
Traveled:
253nm/0:54
Distance/Time
To Go:
Arrived

Flight Plot

Page will automatically refresh every two minutes.

Flight plan parsing failed; only flown route is shown


Map Options




Map Legend


Flown Route
Filed Route
Departure Airport
Arrival Airport
Navaid (VOR, NDB)
Fix

Horizontal Profiles

Position Reports

Time Latitude Longitude Heading Altitude Ground
Speed
24-Nov-17 15:33 40.780798 -111.956616 180 4231ft 0kts
24-Nov-17 15:34 40.780798 -111.956616 180 4231ft 0kts
24-Nov-17 15:35 40.780798 -111.956616 180 4231ft 0kts
24-Nov-17 15:36 40.780798 -111.956616 180 4231ft 0kts
24-Nov-17 15:37 40.780798 -111.956616 180 4231ft 0kts
24-Nov-17 15:38 40.780798 -111.956616 180 4231ft 0kts
24-Nov-17 15:39 40.780798 -111.956616 180 4231ft 0kts
24-Nov-17 15:40 40.780798 -111.956616 180 4231ft 0kts
24-Nov-17 15:41 40.780798 -111.956616 180 4231ft 0kts
24-Nov-17 15:42 40.780798 -111.956616 180 4231ft 0kts
24-Nov-17 15:43 40.780798 -111.956616 180 4231ft 0kts
24-Nov-17 15:44 40.780798 -111.956616 180 4231ft 0kts
24-Nov-17 15:45 40.780787 -111.956616 180 4231ft 0kts
24-Nov-17 15:46 40.780783 -111.956616 180 4231ft 0kts
24-Nov-17 15:47 40.780778 -111.956616 180 4231ft 0kts
24-Nov-17 15:48 40.781110 -111.958408 213 4231ft 7kts
24-Nov-17 15:49 40.777718 -111.960630 180 4231ft 11kts
24-Nov-17 15:50 40.773420 -111.960577 178 4231ft 13kts
24-Nov-17 15:51 40.773231 -111.962686 310 4231ft 18kts
24-Nov-17 15:52 40.798082 -111.962093 0 4828ft 192kts
24-Nov-17 15:53 40.858954 -111.980282 346 7144ft 242kts
24-Nov-17 15:54 40.927105 -111.992645 1 9648ft 252kts
24-Nov-17 15:55 40.999077 -112.001168 1 12173ft 267kts
24-Nov-17 15:56 41.072761 -112.003821 26 14632ft 280kts
24-Nov-17 15:57 41.132677 -111.935331 74 16916ft 301kts
24-Nov-17 15:58 41.135486 -111.821359 116 18855ft 327kts
24-Nov-17 15:59 41.066984 -111.757401 176 20710ft 319kts
24-Nov-17 16:00 40.979011 -111.722780 178 22576ft 340kts
24-Nov-17 16:01 40.886139 -111.685869 177 24478ft 355kts
24-Nov-17 16:02 40.790646 -111.644507 172 26297ft 372kts
24-Nov-17 16:03 40.710901 -111.523583 124 28145ft 513kts
24-Nov-17 16:04 40.662104 -111.345020 119 29991ft 521kts
24-Nov-17 16:05 40.608287 -111.167419 121 31826ft 520kts
24-Nov-17 16:06 40.555642 -110.989988 119 33655ft 519kts
24-Nov-17 16:07 40.505343 -110.812021 118 35501ft 524kts
24-Nov-17 16:08 40.455932 -110.630698 117 37368ft 532kts
24-Nov-17 16:09 40.400411 -110.449838 135 39261ft 532kts
24-Nov-17 16:10 40.300867 -110.309825 143 41102ft 529kts
24-Nov-17 16:11 40.191167 -110.178617 144 42902ft 536kts
24-Nov-17 16:12 40.114154 -110.008666 108 44704ft 568kts
24-Nov-17 16:13 40.081545 -109.804586 107 44911ft 574kts
24-Nov-17 16:14 40.051349 -109.600642 107 45380ft 565kts
24-Nov-17 16:15 40.021126 -109.399483 107 46950ft 567kts
24-Nov-17 16:16 39.990362 -109.197587 107 48529ft 568kts
24-Nov-17 16:17 39.958183 -108.991930 108 48909ft 590kts
24-Nov-17 16:18 39.923323 -108.778682 108 47632ft 602kts
24-Nov-17 16:19 39.894937 -108.605186 108 45777ft 573kts
24-Nov-17 16:20 39.862797 -108.406056 108 43540ft 551kts
24-Nov-17 16:21 39.831450 -108.213528 109 41331ft 540kts
24-Nov-17 16:22 39.799865 -108.023333 109 39138ft 536kts
24-Nov-17 16:23 39.767833 -107.834328 109 36830ft 534kts
24-Nov-17 16:24 39.735897 -107.647399 109 34446ft 528kts
24-Nov-17 16:25 39.705279 -107.461731 108 32031ft 518kts
24-Nov-17 16:26 39.673375 -107.284556 124 29597ft 473kts
24-Nov-17 16:27 39.602387 -107.158827 142 27130ft 395kts
24-Nov-17 16:28 39.520141 -107.121839 207 24637ft 295kts
24-Nov-17 16:29 39.445780 -107.154464 212 22148ft 275kts
24-Nov-17 16:30 39.370243 -107.192769 213 19742ft 309kts
24-Nov-17 16:31 39.288805 -107.167762 129 17307ft 337kts
24-Nov-17 16:32 39.311161 -107.061737 41 17009ft 334kts
24-Nov-17 16:33 39.397676 -107.043043 355 15575ft 322kts
24-Nov-17 16:34 39.486990 -107.051755 354 14151ft 301kts
24-Nov-17 16:35 39.555061 -107.039231 65 13981ft 243kts
24-Nov-17 16:36 39.529272 -106.979485 185 13989ft 191kts
24-Nov-17 16:37 39.519665 -106.978270 189 13985ft 188kts
24-Nov-17 16:38 39.497247 -106.976951 191 13991ft 190kts
24-Nov-17 16:39 39.442181 -106.970013 167 14000ft 216kts
24-Nov-17 16:40 39.385996 -106.941555 186 13896ft 212kts
24-Nov-17 16:41 39.328077 -106.923403 168 12025ft 208kts
24-Nov-17 16:42 39.308276 -106.912854 158 10786ft 179kts
24-Nov-17 16:43 39.308276 -106.912854 158 10786ft 179kts
24-Nov-17 16:44 39.289864 -106.899938 158 9233ft 177kts
24-Nov-17 16:45 39.239348 -106.876610 160 7989ft 185kts
24-Nov-17 16:46 39.218733 -106.866062 86 7741ft 7kts
24-Nov-17 16:47 39.221794 -106.867017 340 7741ft 4kts
24-Nov-17 16:48 39.222961 -106.867437 39 7741ft 5kts
24-Nov-17 16:49 39.223058 -106.867164 72 7741ft 0kts
24-Nov-17 16:56 39.223058 -106.867164 72 7741ft 0kts
24-Nov-17 16:57 39.223058 -106.867164 72 7741ft 0kts
24-Nov-17 16:58 39.220183 -106.865507 159 7740ft 0kts
24-Nov-17 16:59 39.220183 -106.865507 159 7740ft 0kts

Navigation Log

Ident Type
Flight plan parsing failed, navigation log unavailable